N17X KOZA-KGTU
Flight info
| Callsign | N17X |
|---|---|
| Flight time | N/A |
| Altitude | 3500 |
| Route | DCT |
| Aircraft | H500/L-DGV/C |
Departure
| Time | 2026-05-03 21:50 |
|---|---|
| Airport | Ozona Municipal Airport (KOZA) |
Arrival
| Time | N/A |
|---|---|
| Airport | Georgetown Executive Airport at Johnny Gantt Field (KGTU) |
| Time | Latitude | Longitude | Altitude | Speed | Heading |
|---|---|---|---|---|---|
| 2026-05-03 21:47 | 30.73140 | -101.20283 | 2362 ft | 0 kts | 331° |
| 2026-05-03 21:48 | 30.73136 | -101.20286 | 2364 ft | 2 kts | 55° |
| 2026-05-03 21:48 | 30.73133 | -101.20282 | 2366 ft | 3 kts | 73° |
| 2026-05-03 21:48 | 30.73135 | -101.20220 | 2399 ft | 27 kts | 67° |
| 2026-05-03 21:49 | 30.73208 | -101.19819 | 2484 ft | 60 kts | 84° |
| 2026-05-03 21:49 | 30.73268 | -101.19333 | 2706 ft | 69 kts | 84° |
| 2026-05-03 21:49 | 30.73306 | -101.18712 | 2837 ft | 80 kts | 90° |
| 2026-05-03 21:49 | 30.73358 | -101.18050 | 2971 ft | 85 kts | 87° |
| 2026-05-03 21:50 | 30.73401 | -101.17359 | 3176 ft | 84 kts | 91° |
| 2026-05-03 21:50 | 30.73455 | -101.16692 | 3362 ft | 83 kts | 94° |
| 2026-05-03 21:50 | 30.73472 | -101.16025 | 3576 ft | 82 kts | 91° |
| 2026-05-03 21:50 | 30.73471 | -101.15322 | 3645 ft | 96 kts | 94° |
| 2026-05-03 21:51 | 30.73466 | -101.14485 | 3649 ft | 113 kts | 91° |
| 2026-05-03 21:51 | 30.73441 | -101.13506 | 3639 ft | 126 kts | 94° |
| 2026-05-03 21:51 | 30.73435 | -101.12457 | 3645 ft | 134 kts | 89° |
| 2026-05-03 21:51 | 30.73430 | -101.11356 | 3643 ft | 134 kts | 91° |
| 2026-05-03 21:52 | 30.73425 | -101.10285 | 3640 ft | 134 kts | 91° |
| 2026-05-03 21:52 | 30.73409 | -101.09223 | 3640 ft | 126 kts | 98° |
| 2026-05-03 21:52 | 30.73389 | -101.08240 | 3644 ft | 122 kts | 99° |
| 2026-05-03 21:52 | 30.73379 | -101.07243 | 3643 ft | 125 kts | 98° |
| 2026-05-03 21:53 | 30.73377 | -101.06221 | 3640 ft | 128 kts | 97° |
| 2026-05-03 21:53 | 30.73382 | -101.05197 | 3634 ft | 125 kts | 99° |
| 2026-05-03 21:53 | 30.73392 | -101.04194 | 3635 ft | 124 kts | 99° |
| 2026-05-03 21:53 | 30.73402 | -101.03191 | 3636 ft | 126 kts | 97° |
| 2026-05-03 21:54 | 30.73411 | -101.02159 | 3632 ft | 129 kts | 96° |
| 2026-05-03 21:54 | 30.73418 | -101.01106 | 3629 ft | 131 kts | 100° |
| 2026-05-03 21:54 | 30.73422 | -101.00051 | 3625 ft | 130 kts | 98° |
| 2026-05-03 21:54 | 30.73426 | -100.99017 | 3621 ft | 126 kts | 97° |
| 2026-05-03 21:55 | 30.73423 | -100.98004 | 3623 ft | 125 kts | 99° |
| 2026-05-03 21:55 | 30.73417 | -100.96981 | 3621 ft | 128 kts | 98° |
| 2026-05-03 21:55 | 30.73411 | -100.95936 | 3620 ft | 131 kts | 98° |
| 2026-05-03 21:55 | 30.73407 | -100.94869 | 3615 ft | 132 kts | 98° |
| 2026-05-03 21:56 | 30.73405 | -100.93803 | 3612 ft | 132 kts | 97° |
| 2026-05-03 21:56 | 30.73416 | -100.92752 | 3614 ft | 130 kts | 89° |
| 2026-05-03 21:56 | 30.73451 | -100.91688 | 3611 ft | 133 kts | 90° |
| 2026-05-03 21:56 | 30.73477 | -100.90600 | 3609 ft | 136 kts | 94° |
| 2026-05-03 21:57 | 30.73482 | -100.89493 | 3610 ft | 137 kts | 90° |
| 2026-05-03 21:57 | 30.73480 | -100.88368 | 3555 ft | 141 kts | 91° |
| 2026-05-03 21:57 | 30.73475 | -100.87210 | 3529 ft | 145 kts | 93° |
| 2026-05-03 21:57 | 30.73468 | -100.86041 | 3516 ft | 143 kts | 91° |
| 2026-05-03 21:58 | 30.73469 | -100.84911 | 3517 ft | 138 kts | 89° |
| 2026-05-03 21:58 | 30.73470 | -100.83800 | 3518 ft | 141 kts | 90° |
| 2026-05-03 21:58 | 30.73462 | -100.82644 | 3515 ft | 144 kts | 90° |
| 2026-05-03 21:58 | 30.73450 | -100.81476 | 3514 ft | 144 kts | 91° |
| 2026-05-03 21:59 | 30.73437 | -100.80329 | 3513 ft | 140 kts | 90° |
| 2026-05-03 21:59 | 30.73424 | -100.79198 | 3515 ft | 139 kts | 90° |
| 2026-05-03 21:59 | 30.73410 | -100.78082 | 3521 ft | 138 kts | 89° |
| 2026-05-03 21:59 | 30.73396 | -100.76966 | 3520 ft | 138 kts | 89° |
| 2026-05-03 22:00 | 30.73386 | -100.75856 | 3524 ft | 137 kts | 88° |
| 2026-05-03 22:00 | 30.73380 | -100.74748 | 3523 ft | 136 kts | 90° |
| 2026-05-03 22:00 | 30.73370 | -100.73660 | 3526 ft | 133 kts | 91° |
| 2026-05-03 22:00 | 30.73357 | -100.72589 | 3526 ft | 131 kts | 92° |
| 2026-05-03 22:01 | 30.73340 | -100.71542 | 3535 ft | 130 kts | 93° |
| 2026-05-03 22:01 | 30.73324 | -100.70475 | 3532 ft | 134 kts | 91° |
| 2026-05-03 22:01 | 30.73319 | -100.69380 | 3530 ft | 136 kts | 90° |
| 2026-05-03 22:01 | 30.73319 | -100.68299 | 3530 ft | 131 kts | 92° |
| 2026-05-03 22:02 | 30.73319 | -100.67249 | 3534 ft | 129 kts | 91° |
| 2026-05-03 22:02 | 30.73318 | -100.66184 | 3533 ft | 133 kts | 91° |
| 2026-05-03 22:02 | 30.73316 | -100.65119 | 3532 ft | 131 kts | 94° |
| 2026-05-03 22:02 | 30.73308 | -100.64073 | 3531 ft | 128 kts | 94° |
| 2026-05-03 22:03 | 30.73296 | -100.63024 | 3515 ft | 131 kts | 92° |
| 2026-05-03 22:03 | 30.73286 | -100.61963 | 3506 ft | 131 kts | 92° |
| 2026-05-03 22:03 | 30.73275 | -100.60907 | 3498 ft | 129 kts | 92° |
| 2026-05-03 22:03 | 30.73269 | -100.59877 | 3500 ft | 127 kts | 94° |
| 2026-05-03 22:04 | 30.73265 | -100.58871 | 3496 ft | 125 kts | 90° |
| 2026-05-03 22:04 | 30.73261 | -100.57837 | 3500 ft | 130 kts | 93° |
| 2026-05-03 22:04 | 30.73255 | -100.56786 | 3491 ft | 133 kts | 91° |
| 2026-05-03 22:04 | 30.73249 | -100.55686 | 3491 ft | 135 kts | 90° |
| 2026-05-03 22:05 | 30.73244 | -100.54621 | 3488 ft | 131 kts | 92° |
| 2026-05-03 22:05 | 30.73240 | -100.53574 | 3489 ft | 128 kts | 91° |
| 2026-05-03 22:05 | 30.73236 | -100.52537 | 3493 ft | 130 kts | 90° |
| 2026-05-03 22:05 | 30.73233 | -100.51462 | 3487 ft | 134 kts | 88° |
| 2026-05-03 22:06 | 30.73228 | -100.50374 | 3482 ft | 134 kts | 92° |
| 2026-05-03 22:06 | 30.73223 | -100.49303 | 3486 ft | 132 kts | 92° |
| 2026-05-03 22:06 | 30.73220 | -100.48226 | 3482 ft | 134 kts | 89° |
| 2026-05-03 22:06 | 30.73214 | -100.47140 | 3479 ft | 135 kts | 89° |
| 2026-05-03 22:07 | 30.73205 | -100.46028 | 3481 ft | 139 kts | 89° |
| 2026-05-03 22:07 | 30.73200 | -100.44884 | 3476 ft | 143 kts | 88° |
| 2026-05-03 22:07 | 30.73193 | -100.43738 | 3473 ft | 140 kts | 89° |
| 2026-05-03 22:07 | 30.73176 | -100.42615 | 3484 ft | 137 kts | 91° |
| 2026-05-03 22:08 | 30.73140 | -100.41517 | 3488 ft | 136 kts | 94° |
| 2026-05-03 22:08 | 30.73103 | -100.40415 | 3489 ft | 136 kts | 93° |
| 2026-05-03 22:08 | 30.73082 | -100.39313 | 3488 ft | 137 kts | 94° |
| 2026-05-03 22:08 | 30.73070 | -100.38219 | 3482 ft | 134 kts | 94° |
| 2026-05-03 22:09 | 30.73063 | -100.37148 | 3480 ft | 132 kts | 94° |
| 2026-05-03 22:09 | 30.73052 | -100.36083 | 3482 ft | 132 kts | 94° |
| 2026-05-03 22:09 | 30.73040 | -100.35002 | 3478 ft | 134 kts | 92° |
| 2026-05-03 22:10 | 30.73022 | -100.32863 | 3472 ft | 131 kts | 95° |
| 2026-05-03 22:10 | 30.73007 | -100.31794 | 3471 ft | 133 kts | 94° |
| 2026-05-03 22:10 | 30.72992 | -100.30711 | 3457 ft | 134 kts | 92° |
| 2026-05-03 22:10 | 30.72979 | -100.29633 | 3454 ft | 132 kts | 94° |
| 2026-05-03 22:11 | 30.72969 | -100.28575 | 3454 ft | 130 kts | 94° |
| 2026-05-03 22:11 | 30.72958 | -100.27524 | 3455 ft | 131 kts | 92° |
| 2026-05-03 22:11 | 30.72944 | -100.26451 | 3451 ft | 133 kts | 92° |
| 2026-05-03 22:11 | 30.72932 | -100.25370 | 3452 ft | 135 kts | 95° |
| 2026-05-03 22:12 | 30.72921 | -100.24287 | 3456 ft | 134 kts | 95° |
| 2026-05-03 22:12 | 30.72913 | -100.23211 | 3451 ft | 131 kts | 91° |
| 2026-05-03 22:12 | 30.72910 | -100.22166 | 3457 ft | 131 kts | 93° |
| 2026-05-03 22:12 | 30.72905 | -100.21104 | 3453 ft | 132 kts | 92° |
| 2026-05-03 22:13 | 30.72896 | -100.20030 | 3448 ft | 134 kts | 93° |
| 2026-05-03 22:13 | 30.72886 | -100.18953 | 3451 ft | 133 kts | 92° |
| 2026-05-03 22:13 | 30.72875 | -100.17888 | 3450 ft | 129 kts | 94° |
| 2026-05-03 22:13 | 30.72873 | -100.16856 | 3457 ft | 127 kts | 94° |
| 2026-05-03 22:14 | 30.72873 | -100.15830 | 3451 ft | 128 kts | 94° |
| 2026-05-03 22:14 | 30.72862 | -100.14780 | 3454 ft | 131 kts | 91° |
| 2026-05-03 22:14 | 30.72858 | -100.13707 | 3451 ft | 133 kts | 95° |
| 2026-05-03 22:14 | 30.72847 | -100.12649 | 3447 ft | 130 kts | 95° |
| 2026-05-03 22:15 | 30.72828 | -100.11597 | 3451 ft | 130 kts | 96° |
| 2026-05-03 22:15 | 30.72809 | -100.10542 | 3453 ft | 132 kts | 94° |
| 2026-05-03 22:15 | 30.72792 | -100.09476 | 3451 ft | 132 kts | 92° |
| 2026-05-03 22:15 | 30.72777 | -100.08403 | 3454 ft | 134 kts | 94° |
| 2026-05-03 22:16 | 30.72762 | -100.07315 | 3451 ft | 135 kts | 97° |
| 2026-05-03 22:16 | 30.72744 | -100.06230 | 3451 ft | 133 kts | 94° |
| 2026-05-03 22:16 | 30.72722 | -100.05166 | 3453 ft | 130 kts | 98° |
| 2026-05-03 22:16 | 30.72703 | -100.04109 | 3456 ft | 132 kts | 95° |
| 2026-05-03 22:17 | 30.72689 | -100.03029 | 3457 ft | 136 kts | 96° |
| 2026-05-03 22:17 | 30.72682 | -100.01928 | 3457 ft | 137 kts | 93° |
| 2026-05-03 22:17 | 30.72682 | -100.00829 | 3458 ft | 135 kts | 92° |
| 2026-05-03 22:17 | 30.72679 | -99.99734 | 3462 ft | 136 kts | 96° |
| 2026-05-03 22:18 | 30.72671 | -99.98635 | 3464 ft | 136 kts | 95° |
| 2026-05-03 22:18 | 30.72667 | -99.97530 | 3464 ft | 137 kts | 94° |
| 2026-05-03 22:18 | 30.72665 | -99.96435 | 3464 ft | 135 kts | 92° |
| 2026-05-03 22:18 | 30.72657 | -99.95342 | 3464 ft | 136 kts | 93° |
| 2026-05-03 22:19 | 30.72644 | -99.94243 | 3470 ft | 137 kts | 96° |
| 2026-05-03 22:19 | 30.72628 | -99.93125 | 3465 ft | 138 kts | 97° |
| 2026-05-03 22:19 | 30.72612 | -99.92031 | 3467 ft | 136 kts | 94° |
| 2026-05-03 22:19 | 30.72593 | -99.90945 | 3469 ft | 133 kts | 96° |
| 2026-05-03 22:20 | 30.72577 | -99.89861 | 3470 ft | 135 kts | 94° |
| 2026-05-03 22:20 | 30.72564 | -99.88751 | 3470 ft | 139 kts | 94° |
| 2026-05-03 22:20 | 30.72552 | -99.87628 | 3465 ft | 137 kts | 95° |
| 2026-05-03 22:20 | 30.72540 | -99.86538 | 3468 ft | 134 kts | 94° |
| 2026-05-03 22:21 | 30.72516 | -99.85465 | 3467 ft | 132 kts | 95° |
| 2026-05-03 22:21 | 30.72489 | -99.84388 | 3470 ft | 134 kts | 94° |
| 2026-05-03 22:21 | 30.72474 | -99.83310 | 3465 ft | 134 kts | 92° |
| 2026-05-03 22:21 | 30.72472 | -99.82228 | 3467 ft | 134 kts | 92° |
| 2026-05-03 22:22 | 30.72472 | -99.81514 | 3470 ft | 134 kts | 92° |
| 2026-05-03 22:22 | 30.72467 | -99.80443 | 3468 ft | 130 kts | 95° |
| 2026-05-03 22:22 | 30.72446 | -99.79408 | 3473 ft | 128 kts | 95° |
| 2026-05-03 22:22 | 30.72424 | -99.78379 | 3473 ft | 128 kts | 96° |
| 2026-05-03 22:23 | 30.72404 | -99.77345 | 3471 ft | 129 kts | 97° |
| 2026-05-03 22:23 | 30.72379 | -99.76310 | 3468 ft | 127 kts | 98° |
| 2026-05-03 22:23 | 30.72362 | -99.75285 | 3469 ft | 126 kts | 95° |
| 2026-05-03 22:23 | 30.72344 | -99.74281 | 3469 ft | 122 kts | 99° |
| 2026-05-03 22:24 | 30.72327 | -99.73282 | 3471 ft | 124 kts | 97° |
| 2026-05-03 22:24 | 30.72312 | -99.72277 | 3471 ft | 126 kts | 96° |
| 2026-05-03 22:24 | 30.72299 | -99.71239 | 3468 ft | 130 kts | 95° |
| 2026-05-03 22:24 | 30.72290 | -99.70195 | 3471 ft | 130 kts | 97° |
| 2026-05-03 22:25 | 30.72285 | -99.69133 | 3469 ft | 132 kts | 94° |
| 2026-05-03 22:25 | 30.72281 | -99.68061 | 3475 ft | 134 kts | 95° |
| 2026-05-03 22:25 | 30.72269 | -99.66973 | 3473 ft | 135 kts | 95° |
| 2026-05-03 22:25 | 30.72251 | -99.65889 | 3470 ft | 132 kts | 96° |
| 2026-05-03 22:26 | 30.72230 | -99.64824 | 3474 ft | 132 kts | 95° |
| 2026-05-03 22:26 | 30.72211 | -99.63748 | 3471 ft | 134 kts | 96° |
| 2026-05-03 22:26 | 30.72196 | -99.62677 | 3467 ft | 134 kts | 95° |
| 2026-05-03 22:26 | 30.72191 | -99.61598 | 3468 ft | 133 kts | 95° |
| 2026-05-03 22:27 | 30.72183 | -99.60527 | 3469 ft | 133 kts | 96° |
| 2026-05-03 22:27 | 30.72167 | -99.59431 | 3469 ft | 137 kts | 96° |
| 2026-05-03 22:27 | 30.72158 | -99.58326 | 3467 ft | 137 kts | 96° |
| 2026-05-03 22:27 | 30.72147 | -99.57223 | 3464 ft | 137 kts | 97° |
| 2026-05-03 22:28 | 30.72136 | -99.56112 | 3464 ft | 138 kts | 97° |
| 2026-05-03 22:28 | 30.72121 | -99.54986 | 3464 ft | 141 kts | 92° |
| 2026-05-03 22:28 | 30.72111 | -99.53851 | 3462 ft | 140 kts | 95° |
| 2026-05-03 22:28 | 30.72097 | -99.52716 | 3462 ft | 141 kts | 94° |
| 2026-05-03 22:29 | 30.72082 | -99.51582 | 3465 ft | 141 kts | 95° |
| 2026-05-03 22:29 | 30.72065 | -99.50440 | 3462 ft | 141 kts | 96° |
| 2026-05-03 22:29 | 30.72046 | -99.49303 | 3460 ft | 139 kts | 98° |
| 2026-05-03 22:29 | 30.72017 | -99.48193 | 3463 ft | 137 kts | 98° |
| 2026-05-03 22:30 | 30.71988 | -99.47087 | 3463 ft | 138 kts | 98° |
| 2026-05-03 22:30 | 30.71957 | -99.45959 | 3451 ft | 141 kts | 97° |
| 2026-05-03 22:30 | 30.71931 | -99.44845 | 3453 ft | 136 kts | 97° |
| 2026-05-03 22:30 | 30.71911 | -99.43742 | 3459 ft | 137 kts | 96° |
| 2026-05-03 22:31 | 30.71900 | -99.42626 | 3453 ft | 139 kts | 95° |
| 2026-05-03 22:31 | 30.71898 | -99.41497 | 3450 ft | 140 kts | 95° |
| 2026-05-03 22:31 | 30.71887 | -99.40376 | 3450 ft | 138 kts | 96° |
| 2026-05-03 22:31 | 30.71865 | -99.39256 | 3452 ft | 139 kts | 95° |
| 2026-05-03 22:32 | 30.71840 | -99.38134 | 3462 ft | 139 kts | 97° |
| 2026-05-03 22:32 | 30.71816 | -99.37012 | 3463 ft | 139 kts | 90° |
| 2026-05-03 22:32 | 30.71867 | -99.35845 | 3465 ft | 150 kts | 80° |
| 2026-05-03 22:32 | 30.71922 | -99.34622 | 3460 ft | 152 kts | 84° |
| 2026-05-03 22:33 | 30.71900 | -99.33409 | 3458 ft | 149 kts | 89° |
| 2026-05-03 22:33 | 30.71838 | -99.32221 | 3465 ft | 146 kts | 94° |
| 2026-05-03 22:33 | 30.71776 | -99.31067 | 3459 ft | 145 kts | 92° |
| 2026-05-03 22:33 | 30.71724 | -99.29903 | 3462 ft | 144 kts | 90° |
| 2026-05-03 22:34 | 30.71681 | -99.28733 | 3463 ft | 144 kts | 91° |
| 2026-05-03 22:34 | 30.71639 | -99.27591 | 3457 ft | 138 kts | 92° |
| 2026-05-03 22:34 | 30.71594 | -99.26485 | 3290 ft | 139 kts | 96° |
| 2026-05-03 22:34 | 30.71493 | -99.25374 | 3138 ft | 137 kts | 101° |
| 2026-05-03 22:35 | 30.71335 | -99.24299 | 2959 ft | 133 kts | 104° |
| 2026-05-03 22:35 | 30.71191 | -99.23252 | 2870 ft | 130 kts | 96° |
| 2026-05-03 22:35 | 30.71216 | -99.22207 | 2820 ft | 128 kts | 88° |
| 2026-05-03 22:35 | 30.71320 | -99.21177 | 2792 ft | 130 kts | 86° |
| 2026-05-03 22:36 | 30.71449 | -99.20121 | 2626 ft | 133 kts | 92° |
| 2026-05-03 22:36 | 30.71457 | -99.19065 | 2489 ft | 128 kts | 96° |
| 2026-05-03 22:36 | 30.71398 | -99.18053 | 2500 ft | 126 kts | 102° |
| 2026-05-03 22:36 | 30.71309 | -99.17020 | 2495 ft | 129 kts | 101° |
| 2026-05-03 22:37 | 30.71336 | -99.15965 | 2496 ft | 133 kts | 88° |
| 2026-05-03 22:37 | 30.71541 | -99.14905 | 2496 ft | 136 kts | 80° |
| 2026-05-03 22:37 | 30.71809 | -99.13850 | 2499 ft | 139 kts | 76° |
| 2026-05-03 22:37 | 30.72100 | -99.12776 | 2495 ft | 140 kts | 76° |
| 2026-05-03 22:38 | 30.72317 | -99.11681 | 2498 ft | 137 kts | 85° |
| 2026-05-03 22:38 | 30.72421 | -99.10590 | 2501 ft | 135 kts | 90° |
| 2026-05-03 22:38 | 30.72462 | -99.09500 | 2500 ft | 135 kts | 92° |
| 2026-05-03 22:38 | 30.72489 | -99.08418 | 2495 ft | 133 kts | 91° |
| 2026-05-03 22:39 | 30.72530 | -99.07343 | 2499 ft | 134 kts | 92° |
| 2026-05-03 22:39 | 30.72607 | -99.06258 | 2500 ft | 136 kts | 88° |
| 2026-05-03 22:39 | 30.72763 | -99.05183 | 2498 ft | 135 kts | 88° |
| 2026-05-03 22:39 | 30.72930 | -99.04107 | 2507 ft | 135 kts | 87° |
| 2026-05-03 22:40 | 30.73094 | -99.03025 | 2508 ft | 137 kts | 87° |
| 2026-05-03 22:40 | 30.73249 | -99.01921 | 2510 ft | 139 kts | 88° |
| 2026-05-03 22:40 | 30.73391 | -99.00816 | 2508 ft | 137 kts | 88° |
| 2026-05-03 22:40 | 30.73533 | -98.99729 | 2510 ft | 136 kts | 86° |
| 2026-05-03 22:41 | 30.73677 | -98.98646 | 2510 ft | 136 kts | 87° |
| 2026-05-03 22:41 | 30.73812 | -98.97569 | 2502 ft | 133 kts | 87° |
| 2026-05-03 22:41 | 30.73936 | -98.96508 | 2508 ft | 132 kts | 88° |
| 2026-05-03 22:41 | 30.74064 | -98.95452 | 2514 ft | 133 kts | 88° |
| 2026-05-03 22:42 | 30.74206 | -98.94389 | 2512 ft | 135 kts | 81° |
| 2026-05-03 22:42 | 30.74305 | -98.93288 | 2510 ft | 137 kts | 84° |
| 2026-05-03 22:42 | 30.74371 | -98.92180 | 2514 ft | 137 kts | 85° |
| 2026-05-03 22:42 | 30.74436 | -98.91075 | 2511 ft | 138 kts | 83° |
| 2026-05-03 22:43 | 30.74486 | -98.89958 | 2513 ft | 139 kts | 85° |
| 2026-05-03 22:43 | 30.74514 | -98.88825 | 2512 ft | 141 kts | 87° |
| 2026-05-03 22:43 | 30.74548 | -98.87689 | 2516 ft | 141 kts | 85° |
| 2026-05-03 22:43 | 30.74587 | -98.86544 | 2514 ft | 142 kts | 85° |
| 2026-05-03 22:44 | 30.74617 | -98.85397 | 2512 ft | 141 kts | 87° |
| 2026-05-03 22:44 | 30.74653 | -98.84262 | 2514 ft | 140 kts | 88° |
| 2026-05-03 22:44 | 30.74701 | -98.83134 | 2514 ft | 139 kts | 86° |
| 2026-05-03 22:44 | 30.74753 | -98.82036 | 2513 ft | 136 kts | 86° |
| 2026-05-03 22:45 | 30.74811 | -98.80948 | 2514 ft | 134 kts | 87° |
| 2026-05-03 22:45 | 30.74877 | -98.79857 | 2515 ft | 136 kts | 87° |
| 2026-05-03 22:45 | 30.74960 | -98.78772 | 2515 ft | 133 kts | 89° |
| 2026-05-03 22:45 | 30.75069 | -98.77717 | 2516 ft | 129 kts | 87° |
| 2026-05-03 22:46 | 30.75207 | -98.76701 | 2518 ft | 127 kts | 86° |
| 2026-05-03 22:46 | 30.75351 | -98.75695 | 2519 ft | 126 kts | 86° |
| 2026-05-03 22:46 | 30.75486 | -98.74694 | 2515 ft | 124 kts | 86° |
| 2026-05-03 22:46 | 30.75628 | -98.73684 | 2519 ft | 131 kts | 89° |
| 2026-05-03 22:47 | 30.75763 | -98.72609 | 2513 ft | 136 kts | 88° |
| 2026-05-03 22:47 | 30.75877 | -98.71501 | 2508 ft | 139 kts | 83° |
| 2026-05-03 22:47 | 30.75974 | -98.70406 | 2509 ft | 129 kts | 86° |
| 2026-05-03 22:47 | 30.76113 | -98.69426 | 2517 ft | 116 kts | 85° |
| 2026-05-03 22:48 | 30.76452 | -98.68608 | 2508 ft | 117 kts | 45° |
| 2026-05-03 22:48 | 30.77255 | -98.68302 | 2365 ft | 126 kts | 4° |
| 2026-05-03 22:48 | 30.78117 | -98.68189 | 2239 ft | 126 kts | 8° |
| 2026-05-03 22:48 | 30.78963 | -98.67996 | 2225 ft | 117 kts | 13° |
| 2026-05-03 22:49 | 30.79593 | -98.67637 | 2074 ft | 90 kts | 55° |
| 2026-05-03 22:49 | 30.79756 | -98.67014 | 1801 ft | 81 kts | 116° |
| 2026-05-03 22:49 | 30.79496 | -98.66502 | 1533 ft | 63 kts | 153° |
| 2026-05-03 22:49 | 30.79199 | -98.66262 | 1318 ft | 43 kts | 150° |
| 2026-05-03 22:50 | 30.79012 | -98.66128 | 1194 ft | 18 kts | 146° |
| 2026-05-03 22:50 | 30.78969 | -98.66099 | 1135 ft | 5 kts | 143° |
| 2026-05-03 22:50 | 30.78945 | -98.66076 | 1120 ft | 2 kts | 131° |
| 2026-05-03 22:50 | 30.78928 | -98.66026 | 1118 ft | 5 kts | 120° |
| 2026-05-03 22:51 | 30.78923 | -98.66019 | 1105 ft | 0 kts | 130° |
| 2026-05-03 22:55 | 30.78922 | -98.66017 | 1112 ft | 3 kts | 193° |
| 2026-05-03 22:55 | 30.78887 | -98.66032 | 1121 ft | 0 kts | 135° |
| 2026-05-03 22:56 | 30.78877 | -98.66004 | 1213 ft | 22 kts | 116° |
| 2026-05-03 22:56 | 30.78806 | -98.65677 | 1416 ft | 50 kts | 98° |
| 2026-05-03 22:56 | 30.78749 | -98.65260 | 1718 ft | 55 kts | 107° |
| 2026-05-03 22:56 | 30.78669 | -98.64752 | 2079 ft | 72 kts | 103° |
| 2026-05-03 22:57 | 30.78570 | -98.64106 | 2316 ft | 93 kts | 102° |
| 2026-05-03 22:57 | 30.78428 | -98.63281 | 2377 ft | 113 kts | 103° |
| 2026-05-03 22:57 | 30.78260 | -98.62321 | 2390 ft | 127 kts | 102° |
| 2026-05-03 22:57 | 30.78139 | -98.61295 | 2454 ft | 127 kts | 104° |
| 2026-05-03 22:58 | 30.78062 | -98.60279 | 2576 ft | 127 kts | 100° |
| 2026-05-03 22:58 | 30.78003 | -98.59214 | 2544 ft | 136 kts | 99° |
| 2026-05-03 22:58 | 30.77970 | -98.58094 | 2433 ft | 140 kts | 100° |
| 2026-05-03 22:58 | 30.77954 | -98.57003 | 2477 ft | 135 kts | 92° |
| 2026-05-03 22:59 | 30.77817 | -98.55913 | 2521 ft | 136 kts | 105° |
| 2026-05-03 22:59 | 30.77521 | -98.54878 | 2510 ft | 136 kts | 112° |
| 2026-05-03 22:59 | 30.77183 | -98.53851 | 2516 ft | 135 kts | 114° |
| 2026-05-03 22:59 | 30.76853 | -98.52833 | 2517 ft | 132 kts | 112° |
| 2026-05-03 23:00 | 30.76543 | -98.51836 | 2520 ft | 131 kts | 112° |
| 2026-05-03 23:00 | 30.76237 | -98.50844 | 2520 ft | 131 kts | 110° |
| 2026-05-03 23:00 | 30.75921 | -98.49848 | 2522 ft | 131 kts | 110° |
| 2026-05-03 23:00 | 30.75592 | -98.48861 | 2523 ft | 130 kts | 112° |
| 2026-05-03 23:01 | 30.75203 | -98.47914 | 2528 ft | 130 kts | 116° |
| 2026-05-03 23:01 | 30.74823 | -98.46953 | 2525 ft | 131 kts | 113° |
| 2026-05-03 23:01 | 30.74482 | -98.45971 | 2522 ft | 131 kts | 111° |
| 2026-05-03 23:01 | 30.74161 | -98.44991 | 2521 ft | 129 kts | 110° |
| 2026-05-03 23:02 | 30.73844 | -98.44005 | 2521 ft | 131 kts | 110° |
| 2026-05-03 23:02 | 30.73529 | -98.43006 | 2531 ft | 132 kts | 109° |
| 2026-05-03 23:02 | 30.73224 | -98.41996 | 2534 ft | 133 kts | 104° |
| 2026-05-03 23:02 | 30.73036 | -98.40939 | 2532 ft | 133 kts | 96° |
| 2026-05-03 23:03 | 30.72918 | -98.39865 | 2530 ft | 136 kts | 95° |
| 2026-05-03 23:03 | 30.72826 | -98.38772 | 2535 ft | 136 kts | 93° |
| 2026-05-03 23:03 | 30.72739 | -98.37670 | 2540 ft | 138 kts | 93° |
| 2026-05-03 23:03 | 30.72649 | -98.36554 | 2538 ft | 140 kts | 92° |
| 2026-05-03 23:04 | 30.72541 | -98.35433 | 2536 ft | 138 kts | 92° |
| 2026-05-03 23:04 | 30.72424 | -98.34346 | 2534 ft | 134 kts | 94° |
| 2026-05-03 23:04 | 30.72325 | -98.33264 | 2536 ft | 138 kts | 88° |
| 2026-05-03 23:04 | 30.72358 | -98.32113 | 2516 ft | 145 kts | 81° |
| 2026-05-03 23:05 | 30.72495 | -98.30951 | 2504 ft | 146 kts | 73° |
| 2026-05-03 23:05 | 30.72718 | -98.29792 | 2502 ft | 148 kts | 67° |
| 2026-05-03 23:05 | 30.72995 | -98.28649 | 2497 ft | 145 kts | 66° |
| 2026-05-03 23:05 | 30.73253 | -98.27507 | 2502 ft | 147 kts | 70° |
| 2026-05-03 23:06 | 30.73473 | -98.26348 | 2501 ft | 146 kts | 69° |
| 2026-05-03 23:06 | 30.73658 | -98.25181 | 2504 ft | 148 kts | 71° |
| 2026-05-03 23:06 | 30.73829 | -98.23997 | 2504 ft | 150 kts | 73° |
| 2026-05-03 23:06 | 30.74007 | -98.22802 | 2500 ft | 150 kts | 72° |
| 2026-05-03 23:07 | 30.74185 | -98.21595 | 2505 ft | 152 kts | 76° |
| 2026-05-03 23:07 | 30.74371 | -98.20407 | 2498 ft | 151 kts | 73° |
| 2026-05-03 23:07 | 30.74478 | -98.19182 | 2502 ft | 150 kts | 80° |
| 2026-05-03 23:07 | 30.74500 | -98.17987 | 2503 ft | 147 kts | 82° |
| 2026-05-03 23:08 | 30.74490 | -98.16797 | 2499 ft | 147 kts | 83° |
| 2026-05-03 23:08 | 30.74372 | -98.15636 | 2502 ft | 146 kts | 89° |
| 2026-05-03 23:08 | 30.74202 | -98.14480 | 2499 ft | 144 kts | 98° |
| 2026-05-03 23:08 | 30.74072 | -98.13332 | 2503 ft | 143 kts | 91° |
| 2026-05-03 23:09 | 30.73966 | -98.12178 | 2503 ft | 145 kts | 90° |
| 2026-05-03 23:09 | 30.73861 | -98.11014 | 2503 ft | 146 kts | 91° |
| 2026-05-03 23:09 | 30.73756 | -98.09836 | 2499 ft | 147 kts | 95° |
| 2026-05-03 23:09 | 30.73558 | -98.08689 | 2494 ft | 143 kts | 100° |
| 2026-05-03 23:10 | 30.73421 | -98.07943 | 2499 ft | 142 kts | 96° |
| 2026-05-03 23:10 | 30.73302 | -98.06807 | 2499 ft | 142 kts | 93° |
| 2026-05-03 23:10 | 30.73248 | -98.05649 | 2495 ft | 143 kts | 90° |
| 2026-05-03 23:10 | 30.73315 | -98.04524 | 2493 ft | 137 kts | 90° |
| 2026-05-03 23:11 | 30.73475 | -98.03429 | 2500 ft | 138 kts | 85° |
| 2026-05-03 23:11 | 30.73682 | -98.02331 | 2499 ft | 140 kts | 82° |
| 2026-05-03 23:11 | 30.73913 | -98.01241 | 2496 ft | 138 kts | 73° |
| 2026-05-03 23:11 | 30.74109 | -98.00136 | 2499 ft | 141 kts | 77° |
| 2026-05-03 23:12 | 30.74263 | -97.98980 | 2497 ft | 147 kts | 77° |
| 2026-05-03 23:12 | 30.74386 | -97.97801 | 2496 ft | 147 kts | 78° |